createdAt,value
2022-11-24T00:01:26.570Z,3.92
2022-11-24T00:04:29.552Z,4.80
2022-11-24T00:07:32.609Z,6.05
2022-11-24T00:10:35.692Z,4.28
2022-11-24T00:13:39.750Z,6.35
2022-11-24T00:16:42.878Z,9.10
2022-11-24T00:19:45.857Z,10.43
2022-11-24T00:22:48.742Z,5.32
2022-11-24T00:25:51.737Z,7.55
2022-11-24T00:28:56.762Z,10.18
2022-11-24T00:31:59.768Z,14.60
2022-11-24T00:35:02.717Z,4.05
2022-11-24T00:38:05.732Z,5.93
2022-11-24T00:41:08.871Z,14.27
2022-11-24T00:44:12.032Z,7.07
2022-11-24T00:47:15.050Z,13.02
2022-11-24T00:50:18.304Z,5.30
2022-11-24T00:53:21.266Z,4.75
2022-11-24T00:56:25.319Z,10.35
2022-11-24T00:59:28.334Z,5.45
2022-11-24T01:02:31.326Z,5.45
2022-11-24T01:05:37.526Z,6.28
2022-11-24T01:08:41.383Z,5.90
2022-11-24T01:12:02.610Z,8.32
2022-11-24T01:15:06.030Z,7.47
2022-11-24T01:18:09.086Z,9.52
2022-11-24T01:21:12.282Z,7.05
2022-11-24T01:24:15.505Z,7.00
2022-11-24T01:27:18.538Z,6.22
2022-11-24T01:30:23.676Z,6.32
2022-11-24T01:33:26.845Z,9.23
2022-11-24T01:36:30.085Z,5.50
2022-11-24T01:39:33.055Z,6.93
2022-11-24T01:42:52.393Z,13.68
2022-11-24T01:45:56.204Z,5.95
2022-11-24T01:49:09.660Z,10.80
2022-11-24T01:52:23.846Z,8.70
2022-11-24T01:55:31.635Z,7.55
2022-11-24T01:58:35.196Z,16.27
2022-11-24T02:01:38.346Z,6.72
2022-11-24T02:04:41.962Z,5.90
2022-11-24T02:07:45.933Z,12.27
2022-11-24T02:10:49.523Z,9.45
2022-11-24T02:13:54.961Z,9.60
2022-11-24T02:16:57.968Z,32.75
2022-11-24T02:20:07.556Z,28.02
2022-11-24T02:23:10.509Z,29.60
2022-11-24T02:26:22.054Z,15.23
2022-11-24T02:29:25.168Z,20.40
2022-11-24T02:32:29.147Z,16.35
2022-11-24T02:35:33.005Z,20.75
2022-11-24T02:38:36.750Z,13.75
2022-11-24T02:41:45.560Z,22.73
2022-11-24T02:44:53.521Z,18.23
2022-11-24T02:47:56.511Z,29.27
2022-11-24T02:50:59.542Z,17.58
2022-11-24T02:54:02.564Z,15.23
2022-11-24T02:57:05.643Z,17.98
2022-11-24T03:00:09.988Z,13.50
2022-11-24T03:03:13.203Z,17.40
2022-11-24T03:06:16.202Z,16.08
2022-11-24T03:09:19.158Z,18.00
2022-11-24T03:12:22.309Z,17.10
2022-11-24T03:15:25.355Z,21.38
2022-11-24T03:18:28.442Z,17.10
2022-11-24T03:21:31.768Z,15.02
2022-11-24T03:24:35.119Z,10.90
2022-11-24T03:27:38.399Z,19.63
2022-11-24T03:30:41.678Z,22.67
2022-11-24T03:33:44.638Z,17.30
2022-11-24T03:36:47.689Z,12.40
2022-11-24T03:39:50.958Z,24.17
2022-11-24T03:42:53.918Z,11.57
2022-11-24T03:45:57.293Z,13.98
2022-11-24T03:49:00.389Z,14.70
2022-11-24T03:52:07.806Z,14.43
2022-11-24T03:55:11.417Z,14.77
2022-11-24T03:58:14.562Z,13.82
2022-11-24T04:01:17.751Z,15.25
2022-11-24T04:04:21.095Z,19.27
2022-11-24T04:07:24.250Z,26.90
2022-11-24T04:10:27.350Z,34.80
2022-11-24T04:13:30.386Z,37.60
2022-11-24T04:16:33.598Z,29.90
2022-11-24T04:19:36.659Z,34.95
2022-11-24T04:22:40.622Z,38.30
2022-11-24T04:25:44.336Z,35.13
2022-11-24T04:28:47.815Z,38.00
2022-11-24T04:31:51.318Z,33.97
2022-11-24T04:34:54.667Z,31.63
2022-11-24T04:37:57.808Z,40.67
2022-11-24T04:41:04.704Z,37.17
2022-11-24T04:44:07.679Z,48.90
2022-11-24T04:47:23.189Z,42.53
2022-11-24T04:50:26.268Z,29.23
2022-11-24T04:53:29.373Z,31.30
2022-11-24T04:56:32.363Z,33.15
2022-11-24T04:59:35.393Z,31.33
2022-11-24T05:02:38.695Z,35.83
2022-11-24T05:05:41.791Z,28.77
2022-11-24T05:08:47.822Z,28.08
2022-11-24T05:11:52.691Z,32.30
2022-11-24T05:14:55.719Z,35.30
2022-11-24T05:17:59.073Z,38.65
2022-11-24T05:21:02.545Z,39.78
2022-11-24T05:24:06.051Z,44.50
2022-11-24T05:27:09.174Z,26.35
2022-11-24T05:30:12.989Z,33.33
2022-11-24T05:33:19.642Z,27.03
2022-11-24T05:36:41.206Z,29.05
2022-11-24T05:39:44.312Z,23.70
2022-11-24T05:42:48.340Z,21.63
2022-11-24T05:45:51.682Z,29.45
2022-11-24T05:48:54.733Z,28.90
2022-11-24T05:51:57.741Z,35.42
2022-11-24T05:55:00.740Z,31.10
2022-11-24T05:58:06.889Z,29.45
2022-11-24T06:01:09.962Z,36.33
2022-11-24T06:04:13.047Z,29.10
2022-11-24T06:07:16.664Z,26.00
2022-11-24T06:10:21.343Z,29.02
2022-11-24T06:16:27.768Z,24.05
2022-11-24T06:19:31.059Z,27.48
2022-11-24T06:22:34.489Z,32.10
2022-11-24T06:25:37.473Z,39.30
2022-11-24T06:28:40.568Z,33.05
2022-11-24T06:31:43.796Z,33.38
2022-11-24T06:34:47.475Z,29.35
2022-11-24T06:37:50.614Z,32.03
2022-11-24T06:41:00.717Z,33.20
2022-11-24T06:44:05.336Z,32.78
2022-11-24T06:47:08.314Z,32.30
2022-11-24T06:50:11.698Z,29.85
2022-11-24T06:53:14.815Z,36.28
2022-11-24T06:56:20.472Z,30.80
2022-11-24T06:59:23.535Z,30.25
2022-11-24T07:02:26.648Z,37.95
2022-11-24T07:05:29.669Z,32.60
2022-11-24T07:08:32.658Z,31.70
2022-11-24T07:11:36.552Z,37.33
2022-11-24T07:14:39.629Z,45.60
2022-11-24T07:17:42.681Z,30.17
2022-11-24T07:20:45.693Z,41.20
2022-11-24T07:23:53.255Z,28.95
2022-11-24T07:26:56.342Z,28.48
2022-11-24T07:29:59.511Z,30.70
2022-11-24T07:33:03.487Z,27.73
2022-11-24T07:36:08.268Z,38.58
2022-11-24T07:39:11.603Z,27.98
2022-11-24T07:42:14.585Z,39.80
2022-11-24T07:45:17.700Z,44.42
2022-11-24T07:48:20.947Z,39.15
2022-11-24T07:51:24.101Z,37.28
2022-11-24T07:54:27.424Z,39.30
2022-11-24T07:57:30.585Z,48.05
2022-11-24T08:00:33.736Z,52.13
2022-11-24T08:03:37.114Z,34.88
2022-11-24T08:06:44.683Z,38.00
2022-11-24T08:09:51.090Z,42.80
2022-11-24T08:12:54.104Z,41.33
2022-11-24T08:15:57.042Z,38.47
2022-11-24T08:19:00.176Z,52.28
2022-11-24T08:22:03.493Z,94.47
2022-11-24T08:25:06.925Z,39.15
2022-11-24T08:28:10.007Z,65.00
2022-11-24T08:31:16.100Z,67.85
2022-11-24T08:34:19.152Z,54.75
2022-11-24T08:37:22.272Z,46.80
2022-11-24T08:40:25.320Z,42.25
2022-11-24T08:43:28.501Z,30.40
2022-11-24T08:46:31.760Z,30.70
2022-11-24T08:49:34.863Z,14.77
2022-11-24T08:52:38.188Z,27.42
2022-11-24T08:55:41.282Z,28.00
2022-11-24T08:58:44.718Z,26.52
2022-11-24T09:01:47.862Z,26.55
2022-11-24T09:04:51.899Z,32.65
2022-11-24T09:07:55.152Z,11.95
2022-11-24T09:11:05.982Z,23.67
2022-11-24T09:14:09.093Z,29.65
2022-11-24T09:17:12.175Z,36.72
2022-11-24T09:20:15.563Z,26.15
2022-11-24T09:23:18.533Z,42.50
2022-11-24T09:26:33.416Z,30.48
2022-11-24T09:29:36.759Z,29.40
2022-11-24T09:32:40.068Z,17.37
2022-11-24T09:35:43.112Z,27.42
2022-11-24T09:38:46.419Z,21.92
2022-11-24T09:42:10.430Z,29.20
2022-11-24T09:45:57.517Z,31.55
2022-11-24T09:48:59.467Z,35.05
2022-11-24T09:52:08.639Z,25.98
2022-11-24T09:55:40.288Z,17.40
2022-11-24T09:58:51.263Z,25.70
2022-11-24T10:01:56.338Z,22.48
2022-11-24T10:05:01.509Z,27.63
2022-11-24T10:08:20.443Z,28.30
2022-11-24T10:11:47.458Z,33.63
2022-11-24T10:15:17.651Z,43.10
2022-11-24T10:19:03.614Z,36.25
2022-11-24T10:22:13.366Z,25.35
2022-11-24T10:25:34.485Z,30.70
2022-11-24T10:28:45.868Z,46.83
2022-11-24T10:31:54.340Z,22.30
2022-11-24T10:35:03.635Z,33.08
2022-11-24T10:38:22.179Z,40.78
2022-11-24T10:41:38.545Z,38.60
2022-11-24T10:44:43.212Z,43.65
2022-11-24T10:47:47.539Z,43.58
2022-11-24T10:50:54.862Z,45.03
2022-11-24T10:54:21.862Z,36.45
2022-11-24T10:57:44.413Z,31.60
2022-11-24T11:00:53.695Z,34.88
2022-11-24T11:04:00.246Z,61.53
2022-11-24T11:07:10.357Z,53.92
2022-11-24T11:10:21.117Z,58.28
2022-11-24T11:13:30.818Z,68.88
2022-11-24T11:16:54.651Z,84.25
2022-11-24T11:20:07.988Z,59.72
2022-11-24T11:23:21.850Z,82.25
2022-11-24T11:26:34.239Z,111.28
2022-11-24T11:39:35.650Z,131.18
2022-11-24T11:43:04.534Z,163.90
2022-11-24T11:46:18.940Z,103.95
2022-11-24T11:49:22.301Z,75.15
2022-11-24T11:52:36.443Z,88.72
2022-11-24T11:55:49.898Z,92.25
2022-11-24T11:59:14.978Z,92.83
2022-11-24T12:02:27.141Z,76.68
2022-11-24T12:05:47.103Z,81.05
2022-11-24T12:09:20.411Z,81.82
2022-11-24T12:12:46.465Z,73.05
2022-11-24T12:15:52.970Z,60.38
2022-11-24T12:18:58.021Z,64.90
2022-11-24T12:22:36.421Z,165.57
2022-11-24T12:26:02.866Z,76.05
2022-11-24T12:29:43.211Z,62.85
2022-11-24T12:33:12.611Z,60.45
2022-11-24T12:36:36.938Z,39.92
2022-11-24T12:39:49.734Z,30.15
2022-11-24T12:43:02.346Z,29.88
2022-11-24T12:46:20.424Z,24.60
2022-11-24T12:49:34.883Z,23.88
2022-11-24T12:55:48.802Z,17.48
2022-11-24T12:59:03.572Z,18.10
2022-11-24T13:02:31.269Z,19.30
2022-11-24T13:06:21.848Z,15.57
2022-11-24T13:09:25.020Z,6.72
2022-11-24T13:12:28.190Z,5.97
2022-11-24T13:15:45.516Z,4.20
2022-11-24T13:19:15.090Z,1.80
2022-11-24T13:22:25.168Z,9.20
2022-11-24T13:25:35.894Z,12.70
2022-11-24T13:29:23.692Z,7.00
2022-11-24T13:32:34.379Z,8.93
2022-11-24T13:35:38.137Z,9.13
2022-11-24T13:38:47.327Z,22.08
2022-11-24T13:41:50.481Z,31.00
2022-11-24T13:44:58.688Z,43.72
2022-11-24T13:48:01.685Z,43.03
2022-11-24T13:51:22.987Z,46.70
2022-11-24T13:54:28.286Z,35.70
2022-11-24T13:57:46.038Z,29.75
2022-11-24T14:01:01.966Z,29.35
2022-11-24T14:04:36.059Z,28.27
2022-11-24T14:07:42.682Z,26.08
2022-11-24T14:10:46.563Z,30.25
2022-11-24T14:13:49.875Z,31.60
2022-11-24T14:17:15.496Z,33.25
2022-11-24T14:20:28.988Z,23.38
2022-11-24T14:23:32.437Z,34.22
2022-11-24T14:26:37.165Z,28.50
2022-11-24T14:29:56.281Z,33.55
2022-11-24T14:33:02.081Z,36.70
2022-11-24T14:36:05.544Z,26.75
2022-11-24T14:39:13.527Z,22.60
2022-11-24T14:42:21.563Z,37.30
2022-11-24T14:45:26.192Z,40.47
2022-11-24T14:48:40.652Z,40.75
2022-11-24T14:51:46.187Z,41.78
2022-11-24T14:55:21.410Z,39.13
2022-11-24T14:58:37.672Z,31.92
2022-11-24T15:01:44.090Z,36.05
2022-11-24T15:05:13.825Z,45.47
2022-11-24T15:08:16.957Z,70.60
2022-11-24T15:11:21.197Z,79.05
2022-11-24T15:14:41.361Z,58.38
2022-11-24T15:17:57.357Z,49.83
2022-11-24T15:21:00.491Z,39.97
2022-11-24T15:24:21.444Z,50.78
2022-11-24T15:27:24.486Z,52.35
2022-11-24T15:30:28.483Z,56.92
2022-11-24T15:33:33.579Z,69.45
2022-11-24T15:36:36.663Z,55.90
2022-11-24T15:39:39.756Z,59.78
2022-11-24T15:42:43.334Z,63.92
2022-11-24T15:45:46.625Z,62.63
2022-11-24T15:48:49.817Z,59.53
2022-11-24T15:51:52.845Z,88.20
2022-11-24T15:54:57.837Z,76.45
2022-11-24T15:58:02.261Z,56.60
2022-11-24T16:04:08.395Z,53.72
2022-11-24T16:07:15.085Z,60.65
2022-11-24T16:10:32.151Z,68.05
2022-11-24T16:13:35.292Z,58.70
2022-11-24T16:16:38.613Z,78.50
2022-11-24T16:19:42.258Z,62.70
2022-11-24T16:22:45.871Z,80.82
2022-11-24T16:25:50.015Z,69.20
2022-11-24T16:28:53.216Z,63.55
2022-11-24T16:31:56.365Z,62.22
2022-11-24T16:34:59.706Z,74.40
2022-11-24T16:38:02.760Z,62.55
2022-11-24T16:41:05.969Z,61.70
2022-11-24T16:44:09.000Z,56.88
2022-11-24T16:47:13.649Z,65.82
2022-11-24T16:50:16.854Z,65.60
2022-11-24T16:53:19.865Z,58.70
2022-11-24T16:56:23.039Z,57.03
2022-11-24T16:59:26.189Z,60.60
2022-11-24T17:02:29.522Z,71.25
2022-11-24T17:05:32.714Z,69.35
2022-11-24T17:08:37.867Z,90.18
2022-11-24T17:11:41.260Z,91.40
2022-11-24T17:14:52.637Z,122.00
2022-11-24T17:18:24.961Z,78.43
2022-11-24T17:21:29.330Z,95.85
2022-11-24T17:24:32.710Z,85.15
2022-11-24T17:27:35.972Z,91.27
2022-11-24T17:30:39.240Z,83.10
2022-11-24T17:33:42.400Z,75.30
2022-11-24T17:36:46.641Z,78.30
2022-11-24T17:40:12.616Z,68.93
2022-11-24T17:43:12.669Z,68.68
2022-11-24T17:46:15.842Z,62.25
2022-11-24T17:49:19.032Z,59.55
2022-11-24T17:52:22.061Z,49.50
2022-11-24T17:55:25.116Z,42.42
2022-11-24T17:58:33.585Z,41.75
2022-11-24T18:01:38.704Z,41.33
2022-11-24T18:04:41.810Z,38.67
2022-11-24T18:07:44.936Z,35.90
2022-11-24T18:10:48.214Z,31.70
2022-11-24T18:13:59.760Z,32.08
2022-11-24T18:17:03.188Z,29.60
2022-11-24T18:20:07.192Z,42.85
2022-11-24T18:23:10.217Z,41.83
2022-11-24T18:26:18.295Z,29.15
2022-11-24T18:29:23.348Z,30.20
2022-11-24T18:32:26.615Z,77.65
2022-11-24T18:35:29.636Z,38.05
2022-11-24T18:41:40.571Z,35.47
2022-11-24T18:44:43.600Z,36.58
2022-11-24T18:47:46.842Z,19.80
2022-11-24T18:50:53.262Z,27.95
2022-11-24T18:53:58.523Z,21.23
2022-11-24T18:57:03.551Z,19.38
2022-11-24T19:00:08.242Z,16.35
2022-11-24T19:03:12.823Z,16.75
2022-11-24T19:06:25.301Z,28.75
2022-11-24T19:09:28.388Z,26.80
2022-11-24T19:12:31.360Z,26.63
2022-11-24T19:15:35.715Z,19.75
2022-11-24T19:21:41.955Z,12.60
2022-11-24T19:24:47.758Z,18.33
2022-11-24T19:27:50.722Z,16.45
2022-11-24T19:30:53.906Z,15.55
2022-11-24T19:33:59.002Z,14.50
2022-11-24T19:37:01.954Z,19.00
2022-11-24T19:40:07.136Z,12.98
2022-11-24T19:43:10.185Z,7.55
2022-11-24T19:46:15.222Z,8.15
2022-11-24T19:49:18.312Z,10.70
2022-11-24T19:52:21.339Z,4.70
2022-11-24T19:55:24.338Z,5.93
2022-11-24T19:58:27.354Z,6.43
2022-11-24T20:01:33.428Z,4.22
2022-11-24T20:04:40.217Z,9.60
2022-11-24T20:07:43.434Z,5.32
2022-11-24T20:10:46.546Z,5.22
2022-11-24T20:13:50.478Z,9.43
2022-11-24T20:16:53.542Z,14.57
2022-11-24T20:19:56.657Z,8.75
2022-11-24T20:22:59.727Z,10.63
2022-11-24T20:26:11.283Z,10.23
2022-11-24T20:29:15.454Z,8.63
2022-11-24T20:32:20.803Z,8.25
2022-11-24T20:35:23.874Z,5.68
2022-11-24T20:38:26.820Z,5.13
2022-11-24T20:41:32.928Z,7.75
2022-11-24T20:44:36.249Z,9.32
2022-11-24T20:47:39.459Z,12.60
2022-11-24T20:50:45.736Z,9.77
2022-11-24T20:53:53.199Z,6.57
2022-11-24T20:56:56.275Z,35.67
2022-11-24T20:59:59.255Z,9.82
2022-11-24T21:03:02.336Z,11.50
2022-11-24T21:06:05.819Z,8.68
2022-11-24T21:09:10.053Z,8.20
2022-11-24T21:12:13.033Z,11.57
2022-11-24T21:15:16.376Z,8.20
2022-11-24T21:18:20.545Z,9.00
2022-11-24T21:21:26.207Z,11.60
2022-11-24T21:24:31.488Z,14.90
2022-11-24T21:27:35.467Z,16.95
2022-11-24T21:30:38.611Z,19.77
2022-11-24T21:33:44.127Z,20.70
2022-11-24T21:36:47.972Z,16.35
2022-11-24T21:39:51.716Z,12.25
2022-11-24T21:42:54.805Z,10.07
2022-11-24T21:46:08.975Z,10.52
2022-11-24T21:49:13.794Z,10.05
2022-11-24T21:52:16.893Z,12.10
2022-11-24T21:55:20.018Z,18.35
2022-11-24T21:58:24.297Z,14.00
2022-11-24T22:01:29.270Z,15.50
2022-11-24T22:04:32.487Z,12.73
2022-11-24T22:07:35.836Z,10.10
2022-11-24T22:10:39.225Z,17.50
2022-11-24T22:13:44.815Z,11.60
2022-11-24T22:16:48.367Z,11.57
2022-11-24T22:19:51.525Z,8.57
2022-11-24T22:22:54.626Z,10.98
2022-11-24T22:26:03.410Z,14.65
2022-11-24T22:29:06.779Z,15.82
2022-11-24T22:32:09.878Z,14.95
2022-11-24T22:35:12.952Z,16.45
2022-11-24T22:38:16.008Z,9.80
2022-11-24T22:41:19.581Z,54.95
2022-11-24T22:44:22.635Z,15.88
2022-11-24T22:47:25.767Z,12.60
2022-11-24T22:50:28.888Z,16.83
2022-11-24T22:53:32.462Z,15.48
2022-11-24T22:56:35.604Z,11.73
2022-11-24T22:59:38.672Z,8.23
2022-11-24T23:02:41.922Z,10.55
2022-11-24T23:05:45.060Z,13.45
2022-11-24T23:08:48.864Z,14.60
2022-11-24T23:11:51.941Z,13.45
2022-11-24T23:14:55.221Z,15.30
2022-11-24T23:17:58.256Z,17.05
2022-11-24T23:21:21.290Z,19.20
2022-11-24T23:24:24.216Z,19.67
2022-11-24T23:27:27.134Z,23.52
2022-11-24T23:30:30.122Z,21.92
2022-11-24T23:33:33.613Z,31.67
2022-11-24T23:36:36.570Z,18.50
2022-11-24T23:39:39.520Z,12.85
2022-11-24T23:42:42.730Z,11.05
2022-11-24T23:45:45.763Z,10.77
2022-11-24T23:48:50.033Z,5.32
2022-11-24T23:51:53.031Z,2.40
2022-11-24T23:54:56.263Z,5.93
2022-11-24T23:57:59.365Z,2.60
